Latest Weather Observations for Cooma Airport

IDN60801

Issued at 6:32 pm EST Thursday 25 May 2017 (issued every 30 minutes, with the page automatically refreshed every 10 minutes)

About weather observations | Map of weather stations | Latest weather observations for NSW | Other Formats
Station Details ID: 070217 Name: COOMA AIRPORT AWS Lat: -36.29 Lon: 148.97 Height: 930.0 m
Data from the previous 72 hours. | See also: Recent months at Cooma Airport
Date/Time
EST
Temp
°C
App
Temp
°C
Dew
Point
°C
Rel
Hum
%
Delta-T
°C
Wind Press
QNH
hPa
Press
MSL
hPa
Rain since
9am
mm
Dir  Spd
km/h
Gust
km/h
Spd
kts
Gust
kts
25/06:30pm 6.8 3.1 2.5 74 1.9 SW 11 13 6 7 1019.7 1020.0 0.0
25/06:00pm 5.2 3.0 1.3 76 1.6 SSW 2 7 1 4 1019.4 1019.6 0.0
25/05:30pm 9.3 5.9 1.9 60 3.3 WNW 9 11 5 6 1019.1 1019.3 0.0
25/05:00pm 11.6 8.6 1.8 51 4.4 SW 7 13 4 7 1018.8 1019.1 0.0
25/04:30pm 13.8 11.2 3.0 48 5.1 WNW 6 9 3 5 1018.5 1018.7 0.0
25/04:00pm 14.1 10.6 5.5 56 4.3 NE 13 17 7 9 1018.5 1018.7 0.0
25/03:30pm 14.7 11.1 5.0 52 4.8 NE 13 17 7 9 1018.4 1018.6 0.0
25/03:00pm 14.7 11.5 5.2 53 4.7 ENE 11 17 6 9 1018.3 1018.5 0.0
25/02:30pm 15.0 11.2 4.1 48 5.3 NE 13 17 7 9 1018.3 1018.5 0.0
25/02:00pm 14.8 11.8 4.2 49 5.1 NE 9 13 5 7 1018.4 1018.6 0.0
25/01:30pm 14.6 11.5 5.4 54 4.6 NE 11 15 6 8 1018.7 1019.0 0.0
25/01:00pm 13.9 10.7 5.3 56 4.2 NE 11 15 6 8 1019.0 1019.2 0.0
25/12:30pm 13.3 10.0 4.7 56 4.2 NE 11 15 6 8 1019.4 1019.6 0.0
25/12:00pm 12.5 8.9 3.2 53 4.3 NE 11 15 6 8 1019.8 1020.1 0.0
25/11:30am 11.7 7.8 3.5 57 3.8 NE 13 15 7 8 1020.4 1020.6 0.0
25/11:00am 10.9 7.9 4.1 63 3.2 NE 9 13 5 7 1020.8 1021.1 0.0
25/10:30am 9.2 5.8 3.8 69 2.5 NE 11 15 6 8 1021.0 1021.3 0.0
25/10:00am 7.6 3.8 3.8 77 1.7 NE 13 15 7 8 1020.9 1021.2 0.0
25/09:30am 6.6 2.8 3.9 83 1.2 NE 13 15 7 8 1021.1 1021.4 0.0
25/09:00am 4.9 1.0 3.4 90 0.7 NE 13 15 7 8 1021.3 1021.5 0.0
25/08:30am 3.0 -0.2 2.9 99 0.0 NE 9 11 5 6 1021.4 1021.6 0.0
25/08:00am 0.9 -2.7 0.8 99 0.0 NNE 9 11 5 6 1021.0 1021.3 0.0
25/07:30am -1.2 -5.1 -1.3 99 0.0 N 9 9 5 5 1020.7 1021.0 0.0
25/07:00am -2.2 -6.2 -2.3 99 -0.1 N 9 9 5 5 1020.5 1020.7 0.0
25/06:30am -2.5 -5.6 -2.6 99 -0.1 N 4 7 2 4 1020.0 1020.3 0.0
25/06:00am -2.6 -6.1 -3.1 96 0.1 NNE 6 9 3 5 1019.7 1020.0 0.0
25/05:30am -2.5 -4.9 -2.9 97 0.0 CALM 0 0 0 0 1019.4 1019.6 0.0
25/05:00am -1.3 -3.5 -1.4 99 0.0 CALM 0 0 0 0 1019.1 1019.3 0.0
25/04:30am -2.2 -4.5 -2.7 96 0.1 CALM 0 0 0 0 1019.2 1019.4 0.0
25/04:00am -1.7 -3.9 -1.8 99 0.0 CALM 0 0 0 0 1019.2 1019.4 0.0
25/03:30am -1.1 -3.3 -1.2 99 0.0 CALM 0 0 0 0 1019.3 1019.5 0.0
25/03:00am -0.5 -2.6 -0.6 99 0.0 CALM 0 0 0 0 1019.4 1019.6 0.0
25/02:30am -1.2 -3.4 -1.6 97 0.1 CALM 0 0 0 0 1019.4 1019.6 0.0
25/02:00am -0.5 -2.6 -0.6 99 0.0 CALM 0 0 0 0 1019.3 1019.5 0.0
25/01:30am -1.1 -3.3 -1.5 97 0.1 CALM 0 0 0 0 1019.3 1019.5 0.0
25/01:00am -0.6 -2.8 -1.2 96 0.2 CALM 0 0 0 0 1019.3 1019.5 0.0
25/12:30am 0.7 -1.2 0.4 98 0.1 CALM 0 0 0 0 1019.3 1019.5 0.0
25/12:00am 1.2 -1.9 0.3 94 0.4 WSW 6 9 3 5 1019.3 1019.5 0.0
 
Date/Time
EST
Temp
°C
App
Temp
°C
Dew
Point
°C
Rel
Hum
%
Delta-T
°C
Wind Press
QNH
hPa
Press
MSL
hPa
Rain since
9am
mm
Dir  Spd
km/h
Gust
km/h
Spd
kts
Gust
kts
24/11:30pm 0.8 -1.2 0.2 96 0.2 CALM 0 0 0 0 1019.4 1019.6 0.0
24/11:00pm 1.1 -0.9 0.1 93 0.4 CALM 0 0 0 0 1019.3 1019.5 0.0
24/10:30pm 2.4 0.6 1.5 94 0.4 CALM 0 0 0 0 1019.1 1019.3 0.0
24/10:00pm 2.5 0.3 1.3 92 0.5 NE 2 7 1 4 1019.0 1019.2 0.0
24/09:30pm 2.1 0.1 -0.3 84 0.9 CALM 0 0 0 0 1018.7 1019.0 0.0
24/09:00pm 3.4 1.5 0.3 80 1.2 CALM 0 0 0 0 1018.6 1018.8 0.0
24/08:30pm 6.6 2.9 2.1 73 2.0 W 11 15 6 8 1018.3 1018.5 0.0
24/08:00pm 7.6 2.9 3.1 73 2.0 W 17 20 9 11 1018.1 1018.3 0.0
24/07:30pm 5.9 1.1 2.5 79 1.5 WNW 17 20 9 11 1017.8 1018.0 0.0
24/07:00pm 5.2 2.3 2.7 84 1.1 NNE 7 9 4 5 1017.5 1017.7 0.0
24/06:30pm 5.9 1.5 2.7 80 1.4 WSW 15 17 8 9 1017.3 1017.5 0.0
24/06:00pm 5.7 1.2 2.2 78 1.5 WSW 15 19 8 10 1016.9 1017.1 0.0
24/05:30pm 8.2 3.7 2.4 67 2.6 W 15 20 8 11 1016.4 1016.6 0.0
24/05:00pm 8.5 3.6 1.9 63 2.9 W 17 22 9 12 1015.8 1015.9 0.0
24/04:30pm 9.7 3.5 2.1 59 3.4 W 24 32 13 17 1015.6 1015.7 0.0
24/04:00pm 10.9 4.4 2.5 56 3.8 W 26 35 14 19 1015.0 1015.2 0.0
24/03:30pm 11.7 5.3 3.0 55 4.0 W 26 37 14 20 1014.7 1014.8 0.0
24/03:00pm 11.9 4.1 2.6 53 4.3 WSW 33 43 18 23 1014.0 1014.2 0.0
24/02:30pm 12.0 3.5 3.0 54 4.2 WSW 37 50 20 27 1013.6 1013.7 0.0
24/02:00pm 12.3 4.5 2.7 52 4.4 WSW 33 43 18 23 1013.6 1013.7 0.0
24/01:30pm 12.2 3.9 2.4 51 4.5 WSW 35 44 19 24 1013.5 1013.6 0.0
24/01:00pm 12.7 5.4 2.3 49 4.8 WSW 30 44 16 24 1013.4 1013.5 0.0
24/12:30pm 12.7 4.6 3.1 52 4.5 WSW 35 50 19 27 1013.6 1013.7 0.0
24/12:00pm 12.5 3.9 2.7 51 4.5 W 37 52 20 28 1013.8 1013.9 0.0
24/11:30am 12.2 3.2 2.4 51 4.5 WSW 39 52 21 28 1013.9 1014.0 0.0
24/11:10am 12.3 4.6 2.5 51 4.5 W 32 50 17 27 1013.9 1014.0 0.0
24/11:00am 12.2 4.5 3.2 54 4.2 WSW 33 46 18 25 1014.0 1014.2 0.0
24/10:49am 12.2 5.2 4.2 58 3.8 WSW 30 50 16 27 1014.1 1014.3 0.0
24/10:30am 11.8 6.1 5.0 63 3.3 W 24 35 13 19 1014.4 1014.5 0.0
24/10:00am 11.1 5.1 3.4 59 3.6 W 24 41 13 22 1014.5 1014.6 0.0
24/09:30am 11.6 7.4 5.9 68 2.8 WNW 17 28 9 15 1014.2 1014.4 0.0
24/09:00am 10.3 8.0 5.9 74 2.1 NW 7 11 4 6 1014.5 1014.6 3.0
24/08:30am 8.3 6.3 7.2 93 0.5 WNW 7 9 4 5 1014.6 1014.7 3.0
24/08:00am 7.1 5.1 7.0 99 0.0 SW 7 9 4 5 1014.6 1014.7 3.0
24/07:30am 6.4 4.4 6.1 98 0.1 W 6 24 3 13 1014.4 1014.5 3.0
24/07:00am 6.0 5.0 5.4 96 0.3 CALM 0 2 0 1 1014.4 1014.5 3.0
24/06:30am 6.8 4.7 6.7 99 0.0 N 7 11 4 6 1014.1 1014.3 3.0
24/06:17am 7.1 5.3 7.0 99 0.0 W 6 9 3 5 1014.0 1014.2 3.0
24/06:00am 7.3 4.2 7.2 99 0.0 WSW 13 17 7 9 1014.2 1014.4 2.6
24/05:50am 7.3 4.6 7.3 100 0.0 W 11 13 6 7 1014.6 1014.7 1.8
24/05:30am 7.2 4.1 7.2 100 0.0 S 13 15 7 8 1014.0 1014.2 1.6
24/05:00am 7.2 4.1 7.1 99 0.0 SW 13 15 7 8 1014.5 1014.6 1.4
24/04:38am 7.3 3.0 7.2 99 0.0 SW 19 24 10 13 1014.1 1014.3 1.4
24/04:30am 7.5 2.7 7.4 99 0.0 SW 22 28 12 15 1014.6 1014.7 1.2
24/04:25am 7.6 2.8 7.5 99 0.0 SW 22 33 12 18 1014.2 1014.4 1.0
24/04:00am 7.9 5.3 7.8 99 0.0 S 11 15 6 8 1014.4 1014.5 0.4
24/03:30am 7.1 6.2 6.0 93 0.5 CALM 0 6 0 3 1013.9 1014.0 0.2
24/03:00am 7.3 4.8 6.4 94 0.4 NE 9 9 5 5 1014.1 1014.3 0.2
24/02:30am 6.5 4.2 5.5 93 0.5 NE 7 9 4 5 1014.4 1014.5 0.2
24/02:00am 7.0 2.8 5.8 92 0.6 NE 17 19 9 10 1014.7 1014.8 0.2
24/01:30am 6.8 2.4 5.0 88 0.8 NE 17 19 9 10 1014.9 1015.0 0.2
24/01:00am 7.9 4.4 5.4 84 1.2 NE 13 17 7 9 1015.5 1015.6 0.2
24/12:30am 7.8 5.3 4.9 82 1.4 NNE 7 9 4 5 1015.8 1015.9 0.2
24/12:00am 8.2 5.8 5.1 81 1.5 E 7 11 4 6 1016.3 1016.5 0.2
 
Date/Time
EST
Temp
°C
App
Temp
°C
Dew
Point
°C
Rel
Hum
%
Delta-T
°C
Wind Press
QNH
hPa
Press
MSL
hPa
Rain since
9am
mm
Dir  Spd
km/h
Gust
km/h
Spd
kts
Gust
kts
23/11:30pm 7.7 4.8 4.5 80 1.5 NNE 9 13 5 7 1016.9 1017.1 0.2
23/11:00pm 8.2 4.2 4.8 79 1.6 NE 15 22 8 12 1017.1 1017.3 0.2
23/10:30pm 7.6 4.2 3.8 77 1.7 NE 11 24 6 13 1017.4 1017.6 0.2
23/10:00pm 8.6 5.6 4.2 74 2.0 NNE 9 15 5 8 1018.0 1018.2 0.2
23/09:30pm 5.3 2.6 2.7 83 1.1 E 6 11 3 6 1018.1 1018.3 0.2
23/09:00pm 6.6 5.3 3.9 83 1.2 CALM 0 6 0 3 1018.0 1018.2 0.2
23/08:30pm 7.7 5.4 4.8 82 1.4 SE 6 11 3 6 1017.9 1018.1 0.2
23/08:00pm 6.8 3.8 4.1 83 1.2 NNE 9 15 5 8 1017.8 1018.0 0.2
23/07:30pm 8.0 5.6 4.4 78 1.7 ENE 6 11 3 6 1017.5 1017.7 0.2
23/07:00pm 9.0 5.2 4.0 71 2.3 NNW 13 15 7 8 1017.3 1017.5 0.2
23/06:30pm 9.4 6.8 3.4 66 2.7 NNW 6 11 3 6 1017.4 1017.6 0.2
23/06:00pm 11.2 8.3 4.9 65 3.0 NNE 9 13 5 7 1017.2 1017.4 0.2
23/05:30pm 11.8 9.2 3.1 55 4.0 NNW 6 11 3 6 1017.1 1017.3 0.2
23/05:00pm 13.1 10.4 3.5 52 4.5 NNW 7 9 4 5 1017.1 1017.3 0.2
23/04:30pm 15.2 12.3 4.6 49 5.2 NW 9 15 5 8 1017.0 1017.2 0.2
23/04:00pm 15.9 12.2 4.3 46 5.7 NNW 13 17 7 9 1016.8 1016.9 0.2
23/03:30pm 15.8 11.3 2.2 40 6.4 NNW 15 20 8 11 1016.9 1017.1 0.2
23/03:00pm 17.3 12.4 3.9 41 6.6 NNW 19 24 10 13 1016.9 1017.1 0.2
23/02:30pm 17.5 14.2 6.4 48 5.7 N 13 17 7 9 1017.1 1017.3 0.2
23/02:00pm 17.1 13.3 7.5 53 5.1 NE 17 22 9 12 1017.3 1017.5 0.2
23/01:30pm 16.5 12.8 8.0 57 4.5 NE 17 20 9 11 1017.6 1017.8 0.2
23/01:00pm 15.7 12.5 8.4 62 3.9 NE 15 20 8 11 1017.9 1018.1 0.2
23/12:30pm 15.9 13.1 8.6 62 3.9 ENE 13 17 7 9 1018.3 1018.5 0.2
23/12:00pm 15.1 12.6 8.3 64 3.6 NE 11 15 6 8 1019.1 1019.3 0.0
23/11:30am 14.4 12.0 7.0 61 3.8 NE 9 15 5 8 1019.5 1019.7 0.0
23/11:00am 13.0 10.1 8.1 72 2.5 ENE 13 15 7 8 1020.2 1020.4 0.0
23/10:30am 11.3 8.5 7.0 75 2.2 NE 11 15 6 8 1021.0 1021.3 0.0
23/10:00am 10.0 6.4 6.9 81 1.5 NE 15 17 8 9 1021.1 1021.4 0.0
23/09:30am 9.6 6.1 7.0 84 1.3 NE 15 19 8 10 1021.1 1021.4 0.0
23/09:00am 8.1 4.2 6.9 92 0.6 NE 17 19 9 10 1021.5 1021.8 0.2
23/08:30am 6.4 2.7 6.3 99 0.0 NNE 15 17 8 9 1021.5 1021.8 0.2
23/08:00am 4.2 0.1 4.1 99 0.0 NNE 15 17 8 9 1021.3 1021.5 0.2
23/07:30am 1.3 -3.0 1.2 99 0.0 NNE 13 15 7 8 1021.1 1021.4 0.0
23/07:00am 0.6 -4.2 0.5 99 0.0 NNE 15 17 8 9 1020.9 1021.2 0.0
23/06:30am 1.1 -3.2 1.0 99 0.0 NNE 13 17 7 9 1020.8 1021.1 0.0
23/06:00am 0.3 -4.1 0.2 99 0.0 NNE 13 15 7 8 1020.7 1021.0 0.0
23/05:30am 0.3 -3.7 0.2 99 0.0 NNE 11 13 6 7 1020.7 1021.0 0.0
23/05:00am 1.0 -3.3 0.9 99 0.0 NNE 13 15 7 8 1020.4 1020.6 0.0
23/04:30am 0.7 -3.7 0.6 99 0.0 NNE 13 17 7 9 1020.4 1020.6 0.0
23/04:00am 0.1 -4.4 0.0 99 0.0 ENE 13 15 7 8 1020.4 1020.6 0.0
23/03:30am -0.2 -4.3 -0.3 99 0.0 NE 11 13 6 7 1020.7 1021.0 0.0
23/03:00am -0.1 -4.6 -0.2 99 0.0 NNE 13 15 7 8 1020.8 1021.1 0.0
23/02:30am 0.4 -4.0 0.3 99 0.0 NE 13 13 7 7 1021.1 1021.4 0.0
23/02:00am 0.4 -3.6 0.3 99 0.0 NE 11 13 6 7 1021.5 1021.8 0.0
23/01:30am 0.6 -3.8 0.5 99 0.0 NE 13 15 7 8 1021.7 1022.0 0.0
23/01:00am 0.6 -3.8 0.5 99 0.0 NE 13 15 7 8 1021.9 1022.2 0.0
23/12:30am 1.3 -3.0 1.0 98 0.1 NE 13 15 7 8 1022.3 1022.6 0.0
23/12:00am 2.0 -2.2 1.9 99 0.0 NNE 13 15 7 8 1022.7 1023.0 0.0
 
Date/Time
EST
Temp
°C
App
Temp
°C
Dew
Point
°C
Rel
Hum
%
Delta-T
°C
Wind Press
QNH
hPa
Press
MSL
hPa
Rain since
9am
mm
Dir  Spd
km/h
Gust
km/h
Spd
kts
Gust
kts
22/11:30pm 2.1 -1.7 1.8 98 0.1 NNE 11 13 6 7 1022.7 1023.0 0.0
22/11:00pm 3.3 -0.4 2.6 95 0.3 NNE 11 13 6 7 1022.8 1023.1 0.0
22/10:30pm 3.0 -1.5 2.1 94 0.4 NE 15 17 8 9 1022.9 1023.2 0.0
22/10:00pm 5.0 0.0 3.8 92 0.5 NE 19 20 10 11 1022.9 1023.2 0.0
22/09:30pm 3.8 -0.6 2.8 93 0.4 NE 15 17 8 9 1022.8 1023.1 0.0
22/09:00pm 3.6 -0.7 3.2 97 0.2 NE 15 15 8 8 1023.0 1023.3 0.0
22/08:30pm 3.4 0.0 1.9 90 0.6 NNE 9 11 5 6 1022.9 1023.2 0.0
22/08:00pm 5.8 2.9 4.8 93 0.5 NE 9 11 5 6 1022.8 1023.1 0.0
22/07:30pm 4.6 1.5 1.5 80 1.3 NNE 7 9 4 5 1022.9 1023.2 0.0
22/07:00pm 6.3 3.1 2.8 78 1.5 NNE 9 11 5 6 1022.7 1023.0 0.0

Other Formats:

Comma delimited format used in spreadsheet applications
http://www.bom.gov.au/fwo/IDN60801/IDN60801.94921.axf

JavaScript Object Notation format (JSON) in row-major order
http://www.bom.gov.au/fwo/IDN60801/IDN60801.94921.json